createdAt,value
2022-12-05T00:00:10.737Z,5.30
2022-12-05T00:00:22.584Z,5.30
2022-12-05T00:00:34.458Z,5.20
2022-12-05T00:00:46.263Z,5.30
2022-12-05T00:00:58.437Z,5.30
2022-12-05T00:01:21.761Z,5.30
2022-12-05T00:01:41.006Z,5.20
2022-12-05T00:01:52.840Z,5.30
2022-12-05T00:02:04.729Z,5.20
2022-12-05T00:02:16.666Z,5.30
2022-12-05T00:02:28.885Z,5.30
2022-12-05T00:02:40.716Z,5.30
2022-12-05T00:02:52.548Z,5.30
2022-12-05T00:03:05.582Z,5.30
2022-12-05T00:03:17.375Z,5.30
2022-12-05T00:03:29.281Z,5.30
2022-12-05T00:03:41.064Z,5.30
2022-12-05T00:03:55.897Z,5.30
2022-12-05T00:04:10.745Z,5.30
2022-12-05T00:04:23.016Z,5.30
2022-12-05T00:04:34.867Z,5.30
2022-12-05T00:04:47.174Z,5.30
2022-12-05T00:04:59.033Z,5.30
2022-12-05T00:05:11.765Z,5.30
2022-12-05T00:05:23.575Z,5.20
2022-12-05T00:05:36.655Z,5.20
2022-12-05T00:05:48.614Z,5.30
2022-12-05T00:06:00.396Z,5.30
2022-12-05T00:06:12.318Z,5.30
2022-12-05T00:06:25.540Z,5.30
2022-12-05T00:06:38.481Z,5.20
2022-12-05T00:06:50.330Z,5.20
2022-12-05T00:07:02.109Z,5.30
2022-12-05T00:07:13.939Z,5.20
2022-12-05T00:07:25.831Z,5.20
2022-12-05T00:07:38.219Z,5.20
2022-12-05T00:07:50.159Z,5.20
2022-12-05T00:08:02.084Z,5.20
2022-12-05T00:08:14.009Z,5.20
2022-12-05T00:08:25.940Z,5.20
2022-12-05T00:08:37.795Z,5.20
2022-12-05T00:08:49.976Z,5.20
2022-12-05T00:09:02.350Z,5.20
2022-12-05T00:09:14.669Z,5.20
2022-12-05T00:09:26.508Z,5.20
2022-12-05T00:09:38.457Z,5.20
2022-12-05T00:09:51.000Z,5.20
2022-12-05T00:10:03.421Z,5.20
2022-12-05T00:10:15.907Z,5.20
2022-12-05T00:10:27.723Z,5.20
2022-12-05T00:10:39.805Z,5.20
2022-12-05T00:10:51.678Z,5.20
2022-12-05T00:11:03.537Z,5.20
2022-12-05T00:11:18.149Z,5.20
2022-12-05T00:11:32.024Z,5.20
2022-12-05T00:11:44.731Z,5.20
2022-12-05T00:11:57.760Z,5.20
2022-12-05T00:12:09.741Z,5.20
2022-12-05T00:12:21.605Z,5.20
2022-12-05T00:12:33.515Z,5.20
2022-12-05T00:12:45.380Z,5.20
2022-12-05T00:12:57.194Z,5.20
2022-12-05T00:13:09.129Z,5.20
2022-12-05T00:13:20.929Z,5.20
2022-12-05T00:13:32.723Z,5.20
2022-12-05T00:13:45.685Z,5.10
2022-12-05T00:13:59.034Z,5.20
2022-12-05T00:14:11.225Z,5.10
2022-12-05T00:14:22.983Z,5.20
2022-12-05T00:14:34.836Z,5.10
2022-12-05T00:14:46.586Z,5.10
2022-12-05T00:14:58.393Z,5.10
2022-12-05T00:15:12.567Z,5.10
2022-12-05T00:15:24.427Z,5.10
2022-12-05T00:15:42.000Z,5.20
2022-12-05T00:15:53.740Z,5.10
2022-12-05T00:16:11.315Z,5.10
2022-12-05T00:16:25.091Z,5.10
2022-12-05T00:16:38.934Z,5.10
2022-12-05T00:16:51.007Z,5.10
2022-12-05T00:17:03.049Z,5.10
2022-12-05T00:17:14.877Z,5.00
2022-12-05T00:17:26.714Z,5.00
2022-12-05T00:17:40.793Z,5.00
2022-12-05T00:17:52.582Z,5.00
2022-12-05T00:18:04.800Z,5.00
2022-12-05T00:18:16.620Z,5.00
2022-12-05T00:18:28.443Z,5.00
2022-12-05T00:18:40.362Z,5.00
2022-12-05T00:18:52.339Z,5.00
2022-12-05T00:19:05.788Z,4.90
2022-12-05T00:19:17.674Z,5.00
2022-12-05T00:19:29.461Z,5.00
2022-12-05T00:19:41.295Z,5.00
2022-12-05T00:19:56.753Z,5.00
2022-12-05T00:20:09.773Z,5.00
2022-12-05T00:20:21.604Z,5.00
2022-12-05T00:20:33.490Z,5.00
2022-12-05T00:20:46.706Z,5.00
2022-12-05T00:20:58.598Z,5.00
2022-12-05T00:21:16.784Z,5.00
2022-12-05T00:21:30.931Z,5.00
2022-12-05T00:21:42.998Z,5.00
2022-12-05T00:21:54.887Z,5.00
2022-12-05T00:22:06.777Z,5.00
2022-12-05T00:22:18.633Z,5.00
2022-12-05T00:22:30.425Z,5.00
2022-12-05T00:22:42.301Z,5.00
2022-12-05T00:22:54.189Z,5.00
2022-12-05T00:23:05.975Z,5.00
2022-12-05T00:23:17.860Z,5.00
2022-12-05T00:23:29.944Z,5.00
2022-12-05T00:23:42.094Z,5.00
2022-12-05T00:23:55.100Z,4.90
2022-12-05T00:24:08.729Z,4.90
2022-12-05T00:24:20.780Z,4.90
2022-12-05T00:24:32.590Z,4.90
2022-12-05T00:24:44.475Z,4.90
2022-12-05T00:24:56.270Z,4.80
2022-12-05T00:25:08.795Z,4.80
2022-12-05T00:25:20.772Z,4.80
2022-12-05T00:25:32.581Z,4.90
2022-12-05T00:25:44.357Z,4.90
2022-12-05T00:25:56.238Z,4.90
2022-12-05T00:26:07.981Z,4.90
2022-12-05T00:26:19.872Z,4.90
2022-12-05T00:26:31.873Z,4.90
2022-12-05T00:26:43.851Z,4.90
2022-12-05T00:26:55.862Z,4.90
2022-12-05T00:27:07.695Z,4.90
2022-12-05T00:27:19.492Z,4.90
2022-12-05T00:27:31.349Z,4.90
2022-12-05T00:27:43.172Z,4.90
2022-12-05T00:27:55.026Z,5.00
2022-12-05T00:28:06.866Z,5.00
2022-12-05T00:28:18.788Z,5.00
2022-12-05T00:28:32.476Z,5.00
2022-12-05T00:28:44.673Z,5.00
2022-12-05T00:28:57.207Z,5.00
2022-12-05T00:29:09.178Z,5.00
2022-12-05T00:29:20.969Z,5.00
2022-12-05T00:29:32.727Z,5.00
2022-12-05T00:29:44.699Z,5.00
2022-12-05T00:29:56.691Z,5.10
2022-12-05T00:30:09.167Z,5.10
2022-12-05T00:30:20.970Z,5.10
2022-12-05T00:30:32.830Z,5.10
2022-12-05T00:30:44.593Z,5.10
2022-12-05T00:30:56.553Z,5.10
2022-12-05T00:31:11.168Z,5.10
2022-12-05T00:31:23.945Z,5.10
2022-12-05T00:31:35.829Z,5.10
2022-12-05T00:31:47.652Z,5.10
2022-12-05T00:31:59.557Z,5.10
2022-12-05T00:32:11.468Z,5.10
2022-12-05T00:32:23.381Z,5.10
2022-12-05T00:32:35.285Z,5.10
2022-12-05T00:32:47.105Z,5.10
2022-12-05T00:32:59.102Z,5.00
2022-12-05T00:33:10.944Z,5.00
2022-12-05T00:33:22.827Z,5.10
2022-12-05T00:33:34.655Z,5.00
2022-12-05T00:33:46.585Z,5.00
2022-12-05T00:34:00.920Z,5.10
2022-12-05T00:34:12.880Z,5.10
2022-12-05T00:34:24.775Z,5.10
2022-12-05T00:34:36.555Z,5.10
2022-12-05T00:34:48.448Z,5.10
2022-12-05T00:35:00.327Z,5.10
2022-12-05T00:35:12.155Z,5.10
2022-12-05T00:35:24.222Z,5.10
2022-12-05T00:35:36.297Z,5.10
2022-12-05T00:35:48.152Z,5.10
2022-12-05T00:36:12.435Z,5.10
2022-12-05T00:36:26.856Z,5.10
2022-12-05T00:36:38.732Z,5.10
2022-12-05T00:36:50.641Z,5.10
2022-12-05T00:37:02.489Z,5.10
2022-12-05T00:37:14.367Z,5.10
2022-12-05T00:37:26.229Z,5.10
2022-12-05T00:37:38.049Z,5.10
2022-12-05T00:37:50.302Z,5.10
2022-12-05T00:38:02.107Z,5.10
2022-12-05T00:38:13.881Z,5.00
2022-12-05T00:38:25.718Z,5.00
2022-12-05T00:38:37.881Z,5.00
2022-12-05T00:38:49.941Z,5.00
2022-12-05T00:39:08.611Z,5.00
2022-12-05T00:39:20.406Z,5.00
2022-12-05T00:39:32.585Z,5.00
2022-12-05T00:39:44.376Z,5.00
2022-12-05T00:39:56.511Z,5.00
2022-12-05T00:40:09.210Z,5.00
2022-12-05T00:40:21.015Z,4.90
2022-12-05T00:40:35.698Z,4.90
2022-12-05T00:40:47.452Z,4.90
2022-12-05T00:41:10.098Z,4.90
2022-12-05T00:41:24.763Z,4.90
2022-12-05T00:41:36.790Z,4.80
2022-12-05T00:41:48.619Z,4.80
2022-12-05T00:42:00.445Z,4.80
2022-12-05T00:42:12.235Z,4.80
2022-12-05T00:42:24.072Z,4.80
2022-12-05T00:42:35.853Z,4.70
2022-12-05T00:42:52.096Z,4.70
2022-12-05T00:43:04.213Z,4.70
2022-12-05T00:43:16.016Z,4.70
2022-12-05T00:43:27.893Z,4.70
2022-12-05T00:43:39.893Z,4.70
2022-12-05T00:43:52.064Z,4.70
2022-12-05T00:44:04.404Z,4.70
2022-12-05T00:44:16.240Z,4.70
2022-12-05T00:44:28.085Z,4.70
2022-12-05T00:44:39.984Z,4.70
2022-12-05T00:44:51.927Z,4.70
2022-12-05T00:45:04.233Z,4.70
2022-12-05T00:45:16.105Z,4.70
2022-12-05T00:45:27.891Z,4.70
2022-12-05T00:45:39.804Z,4.70
2022-12-05T00:45:51.677Z,4.70
2022-12-05T00:46:23.093Z,4.70
2022-12-05T00:46:35.399Z,4.70
2022-12-05T00:46:47.355Z,4.70
2022-12-05T00:46:59.305Z,4.70
2022-12-05T00:47:11.116Z,4.70
2022-12-05T00:47:22.993Z,4.70
2022-12-05T00:47:36.491Z,4.70
2022-12-05T00:47:48.282Z,4.70
2022-12-05T00:48:00.021Z,4.70
2022-12-05T00:48:11.891Z,4.70
2022-12-05T00:48:23.706Z,4.70
2022-12-05T00:48:35.650Z,4.70
2022-12-05T00:48:47.747Z,4.70
2022-12-05T00:49:00.394Z,4.70
2022-12-05T00:49:12.893Z,4.70
2022-12-05T00:49:24.754Z,4.70
2022-12-05T00:49:37.007Z,4.80
2022-12-05T00:49:48.743Z,4.70
2022-12-05T00:50:00.805Z,4.80
2022-12-05T00:50:12.687Z,4.80
2022-12-05T00:50:24.444Z,4.80
2022-12-05T00:50:36.239Z,4.70
2022-12-05T00:50:48.124Z,4.80
2022-12-05T00:51:15.083Z,4.80
2022-12-05T00:51:35.970Z,4.80
2022-12-05T00:51:47.725Z,4.80
2022-12-05T00:51:59.586Z,4.90
2022-12-05T00:52:11.546Z,4.90
2022-12-05T00:52:23.585Z,4.90
2022-12-05T00:52:36.396Z,4.90
2022-12-05T00:52:48.331Z,4.90
2022-12-05T00:53:00.229Z,4.90
2022-12-05T00:53:12.156Z,4.90
2022-12-05T00:53:24.616Z,4.80
2022-12-05T00:53:36.660Z,4.80
2022-12-05T00:53:48.601Z,4.80
2022-12-05T00:54:03.036Z,4.80
2022-12-05T00:54:16.123Z,4.80
2022-12-05T00:54:27.980Z,4.80
2022-12-05T00:54:40.006Z,4.80
2022-12-05T00:54:52.125Z,4.90
2022-12-05T00:55:04.347Z,4.80
2022-12-05T00:55:16.205Z,4.90
2022-12-05T00:55:28.205Z,4.90
2022-12-05T00:55:40.002Z,4.80
2022-12-05T00:55:51.946Z,4.90
2022-12-05T00:56:11.719Z,4.90
2022-12-05T00:56:25.115Z,4.90
2022-12-05T00:56:36.951Z,4.90
2022-12-05T00:56:48.750Z,4.90
2022-12-05T00:57:00.605Z,4.90
2022-12-05T00:57:12.372Z,4.90
2022-12-05T00:57:24.249Z,4.90
2022-12-05T00:57:36.093Z,4.90
2022-12-05T00:57:47.867Z,4.90
2022-12-05T00:57:59.730Z,4.90
2022-12-05T00:58:11.562Z,4.90
2022-12-05T00:58:23.417Z,4.90
2022-12-05T00:58:35.241Z,4.80
2022-12-05T00:58:47.525Z,4.80
2022-12-05T00:59:00.440Z,4.80
2022-12-05T00:59:17.524Z,4.80
2022-12-05T00:59:29.318Z,4.80
2022-12-05T00:59:41.161Z,4.80
2022-12-05T00:59:53.071Z,4.80
2022-12-05T01:00:06.426Z,4.70
2022-12-05T01:00:18.955Z,4.70
2022-12-05T01:00:30.736Z,4.70
2022-12-05T01:00:42.533Z,4.70
2022-12-05T01:00:54.342Z,4.70
2022-12-05T01:01:14.163Z,4.70
2022-12-05T01:01:35.061Z,4.70
2022-12-05T01:01:48.042Z,4.70
2022-12-05T01:02:00.841Z,4.70
2022-12-05T01:02:12.829Z,4.60
2022-12-05T01:02:24.645Z,4.60
2022-12-05T01:02:36.596Z,4.60
2022-12-05T01:02:48.659Z,4.70
2022-12-05T01:03:00.755Z,4.70
2022-12-05T01:03:12.580Z,4.60
2022-12-05T01:03:25.508Z,4.60
2022-12-05T01:03:38.124Z,4.60
2022-12-05T01:03:56.746Z,4.60
2022-12-05T01:04:41.042Z,4.60
2022-12-05T01:04:53.905Z,4.60
2022-12-05T01:05:06.310Z,4.60
2022-12-05T01:05:18.308Z,4.60
2022-12-05T01:05:30.750Z,4.60
2022-12-05T01:05:43.189Z,4.50
2022-12-05T01:06:03.194Z,4.60
2022-12-05T01:06:15.948Z,4.60
2022-12-05T01:06:28.062Z,4.60
2022-12-05T01:06:40.749Z,4.60
2022-12-05T01:06:55.913Z,4.60
2022-12-05T01:07:07.839Z,4.60
2022-12-05T01:07:19.711Z,4.60
2022-12-05T01:07:31.557Z,4.60
2022-12-05T01:07:44.426Z,4.60
2022-12-05T01:07:56.402Z,4.60
2022-12-05T01:08:08.599Z,4.60
2022-12-05T01:08:20.725Z,4.60
2022-12-05T01:08:33.739Z,4.70
2022-12-05T01:08:45.590Z,4.70
2022-12-05T01:08:58.658Z,4.70
2022-12-05T01:09:13.442Z,4.70
2022-12-05T01:09:25.881Z,4.70
2022-12-05T01:09:37.694Z,4.70
2022-12-05T01:09:49.485Z,4.70
2022-12-05T01:10:01.271Z,4.70
2022-12-05T01:10:13.454Z,4.70
2022-12-05T01:10:25.375Z,4.70
2022-12-05T01:10:37.466Z,4.70
2022-12-05T01:10:56.161Z,4.70
2022-12-05T01:11:09.259Z,4.60
2022-12-05T01:11:23.500Z,4.60
2022-12-05T01:11:40.994Z,4.60
2022-12-05T01:11:53.460Z,4.70
2022-12-05T01:12:06.045Z,4.60
2022-12-05T01:12:18.684Z,4.60
2022-12-05T01:12:31.847Z,4.70
2022-12-05T01:12:47.568Z,4.70
2022-12-05T01:12:59.580Z,4.70
2022-12-05T01:13:11.766Z,4.70
2022-12-05T01:13:25.096Z,4.70
2022-12-05T01:13:37.307Z,4.80
2022-12-05T01:13:49.249Z,4.70
2022-12-05T01:14:01.055Z,4.70
2022-12-05T01:14:14.076Z,4.70
2022-12-05T01:14:26.488Z,4.70
2022-12-05T01:14:38.271Z,4.70
2022-12-05T01:14:50.114Z,4.70
2022-12-05T01:15:02.031Z,4.70
2022-12-05T01:15:13.879Z,4.70
2022-12-05T01:15:26.034Z,4.70
2022-12-05T01:15:38.086Z,4.70
2022-12-05T01:15:49.906Z,4.70
2022-12-05T01:16:01.925Z,4.70
2022-12-05T01:16:20.067Z,4.70
2022-12-05T01:16:37.840Z,4.70
2022-12-05T01:16:51.761Z,4.70
2022-12-05T01:17:03.796Z,4.70
2022-12-05T01:17:16.468Z,4.70
2022-12-05T01:17:28.432Z,4.70
2022-12-05T01:17:40.328Z,4.70
2022-12-05T01:17:52.459Z,4.70
2022-12-05T01:18:05.484Z,4.60
2022-12-05T01:18:20.051Z,4.60
2022-12-05T01:18:32.220Z,4.60
2022-12-05T01:18:44.236Z,4.60
2022-12-05T01:18:57.197Z,4.60
2022-12-05T01:19:26.544Z,4.60
2022-12-05T01:19:38.507Z,4.60
2022-12-05T01:19:50.380Z,4.50
2022-12-05T01:20:02.215Z,4.50
2022-12-05T01:20:14.783Z,4.50
2022-12-05T01:20:26.737Z,4.50
2022-12-05T01:20:43.263Z,4.50
2022-12-05T01:20:55.304Z,4.50
2022-12-05T01:21:11.598Z,4.50
2022-12-05T01:21:23.836Z,4.50
2022-12-05T01:21:35.686Z,4.60
2022-12-05T01:21:50.490Z,4.50
2022-12-05T01:22:02.572Z,4.50
2022-12-05T01:22:14.470Z,4.50
2022-12-05T01:22:26.312Z,4.50
2022-12-05T01:22:38.435Z,4.50
2022-12-05T01:22:50.329Z,4.50
2022-12-05T01:23:02.415Z,4.50
2022-12-05T01:23:14.578Z,4.50
2022-12-05T01:23:26.553Z,4.50
2022-12-05T01:23:38.447Z,4.50
2022-12-05T01:23:50.451Z,4.50
2022-12-05T01:24:02.391Z,4.50
2022-12-05T01:24:14.724Z,4.50
2022-12-05T01:24:27.102Z,4.50
2022-12-05T01:24:38.879Z,4.50
2022-12-05T01:24:50.772Z,4.50
2022-12-05T01:25:02.994Z,4.50
2022-12-05T01:25:14.832Z,4.40
2022-12-05T01:25:26.745Z,4.40
2022-12-05T01:25:47.612Z,4.50
2022-12-05T01:25:59.385Z,4.40
2022-12-05T01:26:14.405Z,4.50
2022-12-05T01:26:26.197Z,4.40
2022-12-05T01:26:38.179Z,4.40
2022-12-05T01:26:50.104Z,4.40
2022-12-05T01:27:02.229Z,4.40
2022-12-05T01:27:14.322Z,4.40
2022-12-05T01:27:26.177Z,4.40
2022-12-05T01:27:38.200Z,4.40
2022-12-05T01:27:50.018Z,4.40
2022-12-05T01:28:01.942Z,4.40
2022-12-05T01:28:14.525Z,4.40
2022-12-05T01:28:26.374Z,4.40
2022-12-05T01:28:38.735Z,4.30
2022-12-05T01:28:51.260Z,4.30
2022-12-05T01:29:04.010Z,4.40
2022-12-05T01:29:18.479Z,4.30
2022-12-05T01:29:30.520Z,4.30
2022-12-05T01:29:42.368Z,4.30
2022-12-05T01:29:54.528Z,4.30
2022-12-05T01:30:07.435Z,4.30
2022-12-05T01:30:20.262Z,4.30
2022-12-05T01:30:32.160Z,4.30
2022-12-05T01:30:47.091Z,4.30
2022-12-05T01:30:59.066Z,4.30
2022-12-05T01:31:36.153Z,4.30
2022-12-05T01:31:49.845Z,4.30
2022-12-05T01:32:02.006Z,4.30
2022-12-05T01:32:14.222Z,4.30
2022-12-05T01:32:26.147Z,4.20
2022-12-05T01:32:38.120Z,4.20
2022-12-05T01:32:50.008Z,4.20
2022-12-05T01:33:02.018Z,4.20
2022-12-05T01:33:14.064Z,4.20
2022-12-05T01:33:26.338Z,4.20
2022-12-05T01:33:38.400Z,4.20
2022-12-05T01:33:50.806Z,4.20
2022-12-05T01:34:05.350Z,4.20
2022-12-05T01:34:17.991Z,4.20
2022-12-05T01:34:29.934Z,4.20
2022-12-05T01:34:41.899Z,4.20
2022-12-05T01:34:54.725Z,4.20
2022-12-05T01:35:07.169Z,4.20
2022-12-05T01:35:19.109Z,4.20
2022-12-05T01:35:34.885Z,4.20
2022-12-05T01:35:46.792Z,4.20
2022-12-05T01:35:58.803Z,4.20
2022-12-05T01:36:11.745Z,4.20
2022-12-05T01:36:24.415Z,4.10
2022-12-05T01:36:36.442Z,4.10
2022-12-05T01:36:48.329Z,4.10
2022-12-05T01:37:00.202Z,4.10
2022-12-05T01:37:12.221Z,4.00
2022-12-05T01:37:24.102Z,4.00
2022-12-05T01:37:36.073Z,4.00
2022-12-05T01:37:47.982Z,3.90
2022-12-05T01:37:59.913Z,3.90
2022-12-05T01:38:12.429Z,3.90
2022-12-05T01:38:24.277Z,3.90
2022-12-05T01:38:36.208Z,3.90
2022-12-05T01:38:48.231Z,3.90
2022-12-05T01:39:00.274Z,3.90
2022-12-05T01:39:12.588Z,3.90
2022-12-05T01:39:24.748Z,3.90
2022-12-05T01:39:36.676Z,3.90
2022-12-05T01:39:49.563Z,3.90
2022-12-05T01:40:01.545Z,3.90
2022-12-05T01:40:13.541Z,3.90
2022-12-05T01:40:25.684Z,3.90
2022-12-05T01:40:37.936Z,3.90
2022-12-05T01:40:49.884Z,3.90
2022-12-05T01:41:05.768Z,3.90
2022-12-05T01:41:21.278Z,3.90
2022-12-05T01:41:36.876Z,3.90
2022-12-05T01:41:49.873Z,3.90
2022-12-05T01:42:02.019Z,3.90
2022-12-05T01:42:13.959Z,3.90
2022-12-05T01:42:26.463Z,3.90
2022-12-05T01:42:40.119Z,3.90
2022-12-05T01:42:52.134Z,3.90
2022-12-05T01:43:04.516Z,3.90
2022-12-05T01:43:17.863Z,3.90
2022-12-05T01:43:29.785Z,3.90
2022-12-05T01:43:58.874Z,3.90
2022-12-05T01:44:13.668Z,3.90
2022-12-05T01:44:25.459Z,3.90
2022-12-05T01:44:37.240Z,4.00
2022-12-05T01:45:02.700Z,3.90
2022-12-05T01:45:18.277Z,3.90
2022-12-05T01:45:35.772Z,4.00
2022-12-05T01:45:47.876Z,4.00
2022-12-05T01:46:00.851Z,4.00
2022-12-05T01:46:13.028Z,4.00
2022-12-05T01:46:26.097Z,4.00
2022-12-05T01:46:50.523Z,4.00
2022-12-05T01:47:02.427Z,4.10
2022-12-05T01:47:17.790Z,4.10
2022-12-05T01:47:30.995Z,4.10
2022-12-05T01:47:42.932Z,4.10
2022-12-05T01:47:54.862Z,4.20
2022-12-05T01:48:18.516Z,4.10
2022-12-05T01:48:33.403Z,4.10
2022-12-05T01:48:45.404Z,4.20
2022-12-05T01:49:23.033Z,4.20
2022-12-05T01:49:38.260Z,4.10
2022-12-05T01:49:50.170Z,4.10
2022-12-05T01:50:02.166Z,4.10
2022-12-05T01:50:14.050Z,4.10
2022-12-05T01:50:25.891Z,4.10
2022-12-05T01:50:37.754Z,4.10
2022-12-05T01:50:49.675Z,4.10
2022-12-05T01:51:01.826Z,4.10
2022-12-05T01:51:13.725Z,4.10
2022-12-05T01:51:25.713Z,4.10
2022-12-05T01:51:39.681Z,4.10
2022-12-05T01:52:00.663Z,4.10
2022-12-05T01:52:18.385Z,4.10
2022-12-05T01:52:31.388Z,4.10
2022-12-05T01:52:44.077Z,4.10
2022-12-05T01:52:56.325Z,4.00
2022-12-05T01:53:08.208Z,4.00
2022-12-05T01:53:20.111Z,4.00
2022-12-05T01:53:32.402Z,4.10
2022-12-05T01:53:44.891Z,4.10
2022-12-05T01:53:57.603Z,4.10
2022-12-05T01:54:10.025Z,4.10
2022-12-05T01:54:24.909Z,4.00
2022-12-05T01:54:37.716Z,4.10
2022-12-05T01:54:51.412Z,4.10
2022-12-05T01:55:21.361Z,4.00
2022-12-05T01:55:34.534Z,4.10
2022-12-05T01:55:48.037Z,4.00
2022-12-05T01:55:59.914Z,4.00
2022-12-05T01:56:12.062Z,4.10
2022-12-05T01:56:23.889Z,4.10
2022-12-05T01:56:36.838Z,4.10
2022-12-05T01:56:58.945Z,4.10
2022-12-05T01:57:12.019Z,4.10
2022-12-05T01:57:24.733Z,4.10
2022-12-05T01:57:36.849Z,4.10
2022-12-05T01:57:48.749Z,4.10
2022-12-05T01:58:00.933Z,4.10
2022-12-05T01:58:12.827Z,4.10
2022-12-05T01:58:26.211Z,4.10
2022-12-05T01:58:38.857Z,4.10
2022-12-05T01:58:51.250Z,4.20
2022-12-05T01:59:06.154Z,4.20
2022-12-05T01:59:18.371Z,4.20
2022-12-05T01:59:34.584Z,4.20
2022-12-05T01:59:59.248Z,4.20
2022-12-05T02:00:17.899Z,4.20
2022-12-05T02:00:30.092Z,4.20
2022-12-05T02:00:42.033Z,4.20
2022-12-05T02:00:54.399Z,4.20
2022-12-05T02:01:06.803Z,4.20
2022-12-05T02:01:18.972Z,4.10
2022-12-05T02:01:31.064Z,4.10
2022-12-05T02:01:43.031Z,4.10
2022-12-05T02:01:55.200Z,4.10
2022-12-05T02:02:07.227Z,4.10
2022-12-05T02:02:19.472Z,4.20
2022-12-05T02:02:31.531Z,4.20
2022-12-05T02:02:49.201Z,4.20
2022-12-05T02:03:08.044Z,4.20
2022-12-05T02:03:20.204Z,4.20
2022-12-05T02:03:33.013Z,4.20
2022-12-05T02:03:45.266Z,4.20
2022-12-05T02:03:58.185Z,4.20
2022-12-05T02:04:10.083Z,4.20
2022-12-05T02:04:22.033Z,4.30
2022-12-05T02:04:37.853Z,4.30
2022-12-05T02:05:09.345Z,4.30
2022-12-05T02:05:30.037Z,4.30
2022-12-05T02:05:41.978Z,4.30
2022-12-05T02:05:54.719Z,4.30
2022-12-05T02:06:07.612Z,4.30
2022-12-05T02:06:19.368Z,4.30
2022-12-05T02:06:31.986Z,4.30
2022-12-05T02:06:43.857Z,4.30
2022-12-05T02:06:55.828Z,4.30
2022-12-05T02:07:07.996Z,4.30
2022-12-05T02:07:45.782Z,4.30
2022-12-05T02:07:58.705Z,4.30
2022-12-05T02:08:11.212Z,4.30
2022-12-05T02:08:23.525Z,4.30
2022-12-05T02:08:36.393Z,4.30
2022-12-05T02:08:49.254Z,4.30
2022-12-05T02:09:01.334Z,4.30
2022-12-05T02:09:13.464Z,4.30
2022-12-05T02:09:25.653Z,4.30
2022-12-05T02:09:38.241Z,4.30
2022-12-05T02:09:50.155Z,4.30
2022-12-05T02:10:02.090Z,4.30
2022-12-05T02:10:14.477Z,4.30
2022-12-05T02:10:26.660Z,4.30
2022-12-05T02:10:52.583Z,4.30
2022-12-05T02:11:06.766Z,4.20
2022-12-05T02:11:18.596Z,4.20
2022-12-05T02:11:31.517Z,4.20
2022-12-05T02:11:54.102Z,4.20
2022-12-05T02:12:06.262Z,4.20
2022-12-05T02:12:18.879Z,4.20
2022-12-05T02:12:30.721Z,4.20
2022-12-05T02:12:42.867Z,4.20
2022-12-05T02:12:54.950Z,4.20
2022-12-05T02:13:35.623Z,4.20
2022-12-05T02:14:05.903Z,4.20
2022-12-05T02:14:43.366Z,4.20
2022-12-05T02:15:24.011Z,4.20
2022-12-05T02:15:56.792Z,4.10
2022-12-05T02:16:30.639Z,4.10
2022-12-05T02:17:02.795Z,4.20
2022-12-05T02:17:37.549Z,4.10
2022-12-05T02:18:40.488Z,4.20
2022-12-05T02:19:10.780Z,4.20
2022-12-05T02:20:04.624Z,4.10
2022-12-05T02:20:25.519Z,4.10
2022-12-05T02:21:23.570Z,4.10
2022-12-05T02:22:23.629Z,4.10
2022-12-05T02:23:22.377Z,4.00
2022-12-05T02:24:11.169Z,4.00
2022-12-05T02:24:40.508Z,3.90
2022-12-05T02:25:17.804Z,3.80
2022-12-05T02:25:46.734Z,3.80
2022-12-05T02:26:16.472Z,3.80
2022-12-05T02:27:27.022Z,3.80
2022-12-05T02:28:51.042Z,3.80
2022-12-05T02:29:03.087Z,3.80
2022-12-05T02:29:39.737Z,3.70
2022-12-05T02:30:08.374Z,3.70
2022-12-05T02:30:26.691Z,3.60
2022-12-05T02:30:49.654Z,3.60
2022-12-05T02:31:30.517Z,3.60
2022-12-05T02:31:48.517Z,3.60
2022-12-05T02:32:11.116Z,3.60
2022-12-05T02:32:31.474Z,3.60
2022-12-05T02:33:07.767Z,3.50
2022-12-05T02:33:32.597Z,3.60
2022-12-05T02:33:52.941Z,3.60
2022-12-05T02:34:20.458Z,3.60
2022-12-05T02:34:56.488Z,3.60
2022-12-05T02:35:48.836Z,3.60
2022-12-05T02:36:49.339Z,3.60
2022-12-05T02:37:26.496Z,3.60
2022-12-05T02:37:46.970Z,3.70
2022-12-05T02:38:22.657Z,3.60
2022-12-05T02:39:51.995Z,3.60
2022-12-05T02:41:09.631Z,3.70
2022-12-05T02:41:57.864Z,3.70
2022-12-05T02:42:33.519Z,3.70
2022-12-05T02:42:57.038Z,3.70
2022-12-05T02:43:16.608Z,3.70
2022-12-05T02:43:50.953Z,3.70
2022-12-05T02:44:16.299Z,3.70
2022-12-05T02:44:59.060Z,3.70
2022-12-05T02:45:13.626Z,3.60
2022-12-05T02:45:25.902Z,3.60
2022-12-05T02:45:37.784Z,3.60
2022-12-05T02:45:52.995Z,3.60
2022-12-05T02:46:10.264Z,3.60
2022-12-05T02:46:24.309Z,3.60
2022-12-05T02:46:38.267Z,3.60
2022-12-05T02:46:50.109Z,3.60
2022-12-05T02:47:02.024Z,3.70
2022-12-05T02:47:15.381Z,3.70
2022-12-05T02:47:29.281Z,3.70
2022-12-05T02:47:46.795Z,3.70
2022-12-05T02:47:58.752Z,3.70
2022-12-05T02:48:11.214Z,3.60
2022-12-05T02:48:22.983Z,3.70
2022-12-05T02:48:34.873Z,3.60
2022-12-05T02:48:47.017Z,3.70
2022-12-05T02:49:01.795Z,3.60
2022-12-05T02:49:18.496Z,3.70
2022-12-05T02:49:32.785Z,3.70
2022-12-05T02:49:44.704Z,3.60
2022-12-05T02:49:56.982Z,3.70
2022-12-05T02:50:10.529Z,3.60
2022-12-05T02:50:32.629Z,3.60
2022-12-05T02:50:44.524Z,3.60
2022-12-05T02:50:57.867Z,3.60
2022-12-05T02:51:09.761Z,3.60
2022-12-05T02:51:23.762Z,3.60
2022-12-05T02:51:41.410Z,3.70
2022-12-05T02:51:57.204Z,3.70
2022-12-05T02:52:11.103Z,3.70
2022-12-05T02:52:22.899Z,3.70
2022-12-05T02:52:34.786Z,3.70
2022-12-05T02:52:48.631Z,3.70
2022-12-05T02:53:05.767Z,3.60
2022-12-05T02:53:17.721Z,3.70
2022-12-05T02:53:29.457Z,3.70
2022-12-05T02:53:41.321Z,3.60
2022-12-05T02:53:53.302Z,3.60
2022-12-05T02:54:08.417Z,3.60
2022-12-05T02:54:26.772Z,3.50
2022-12-05T02:54:40.248Z,3.50
2022-12-05T02:54:52.831Z,3.50
2022-12-05T02:55:05.255Z,3.50
2022-12-05T02:55:17.566Z,3.40
2022-12-05T02:55:29.456Z,3.40
2022-12-05T02:55:41.739Z,3.40
2022-12-05T02:55:54.051Z,3.40
2022-12-05T02:56:06.315Z,3.40
2022-12-05T02:56:18.274Z,3.40
2022-12-05T02:56:30.828Z,3.30
2022-12-05T02:56:44.678Z,3.30
2022-12-05T02:56:57.212Z,3.40
2022-12-05T02:57:09.617Z,3.30
2022-12-05T02:57:21.464Z,3.30
2022-12-05T02:57:33.357Z,3.40
2022-12-05T02:57:54.550Z,3.40
2022-12-05T02:58:11.395Z,3.40
2022-12-05T02:58:28.051Z,3.40
2022-12-05T02:58:47.332Z,3.40
2022-12-05T02:58:59.233Z,3.40
2022-12-05T02:59:11.158Z,3.40
2022-12-05T02:59:23.680Z,3.30
2022-12-05T02:59:35.835Z,3.40
2022-12-05T02:59:47.764Z,3.40
2022-12-05T02:59:59.892Z,3.40
2022-12-05T03:00:12.607Z,3.40
2022-12-05T03:00:24.491Z,3.40
2022-12-05T03:00:37.181Z,3.40
2022-12-05T03:00:50.869Z,3.40
2022-12-05T03:01:02.930Z,3.40
2022-12-05T03:01:14.823Z,3.40
2022-12-05T03:01:28.983Z,3.40
2022-12-05T03:01:41.132Z,3.40
2022-12-05T03:01:53.120Z,3.40
2022-12-05T03:02:05.501Z,3.40
2022-12-05T03:02:28.557Z,3.40
2022-12-05T03:02:41.113Z,3.40
2022-12-05T03:02:56.570Z,3.40
2022-12-05T03:03:15.451Z,3.40
2022-12-05T03:03:27.363Z,3.40
2022-12-05T03:03:39.251Z,3.40
2022-12-05T03:03:51.242Z,3.40
2022-12-05T03:04:04.697Z,3.40
2022-12-05T03:04:16.869Z,3.40
2022-12-05T03:04:32.189Z,3.40
2022-12-05T03:04:44.149Z,3.40
2022-12-05T03:04:56.251Z,3.40
2022-12-05T03:05:16.597Z,3.30
2022-12-05T03:06:06.872Z,3.40
2022-12-05T03:06:28.827Z,3.40
2022-12-05T03:06:49.657Z,3.30
2022-12-05T03:07:06.754Z,3.30
2022-12-05T03:07:19.335Z,3.30
2022-12-05T03:07:31.118Z,3.30
2022-12-05T03:07:44.296Z,3.30
2022-12-05T03:07:56.932Z,3.30
2022-12-05T03:08:12.015Z,3.30
2022-12-05T03:08:27.538Z,3.30
2022-12-05T03:09:01.200Z,3.30
2022-12-05T03:09:25.223Z,3.30
2022-12-05T03:09:43.997Z,3.30
2022-12-05T03:10:00.765Z,3.20
2022-12-05T03:10:12.807Z,3.20
2022-12-05T03:10:26.073Z,3.20
2022-12-05T03:10:38.399Z,3.20
2022-12-05T03:10:50.367Z,3.30
2022-12-05T03:11:02.375Z,3.30
2022-12-05T03:11:15.093Z,3.30
2022-12-05T03:11:29.407Z,3.30
2022-12-05T03:11:56.341Z,3.30
2022-12-05T03:12:17.103Z,3.30
2022-12-05T03:12:42.518Z,3.40
2022-12-05T03:12:58.511Z,3.40
2022-12-05T03:13:15.177Z,3.30
2022-12-05T03:13:45.017Z,3.40
2022-12-05T03:13:59.063Z,3.40
2022-12-05T03:14:18.262Z,3.40
2022-12-05T03:14:37.725Z,3.30
2022-12-05T03:14:56.609Z,3.30
2022-12-05T03:15:55.258Z,3.30
2022-12-05T03:16:17.416Z,3.30
2022-12-05T03:16:42.751Z,3.40
2022-12-05T03:16:58.246Z,3.40
2022-12-05T03:17:13.834Z,3.40
2022-12-05T03:17:29.965Z,3.40
2022-12-05T03:18:06.665Z,3.40
2022-12-05T03:18:28.990Z,3.50
2022-12-05T03:19:06.846Z,3.50
2022-12-05T03:19:59.017Z,3.50
2022-12-05T03:20:25.433Z,3.50
2022-12-05T03:21:30.325Z,3.50
2022-12-05T03:21:57.778Z,3.50
2022-12-05T03:22:15.486Z,3.50
2022-12-05T03:22:49.012Z,3.50
2022-12-05T03:23:06.536Z,3.50
2022-12-05T03:23:25.708Z,3.50
2022-12-05T03:23:46.097Z,3.50
2022-12-05T03:24:09.365Z,3.50
2022-12-05T03:24:21.236Z,3.50
2022-12-05T03:24:35.440Z,3.50
2022-12-05T03:24:47.487Z,3.60
2022-12-05T03:25:00.420Z,3.60